sensor_id;sensor_type;location;lat;lon;timestamp;P1;durP1;ratioP1;P2;durP2;ratioP2
6739;SDS011;3407;49.882;10.920;2023-05-07T00:02:33;4.27;;;3.87;;
6739;SDS011;3407;49.882;10.920;2023-05-07T00:07:28;4.57;;;3.70;;
6739;SDS011;3407;49.882;10.920;2023-05-07T00:12:24;4.97;;;3.87;;
6739;SDS011;3407;49.882;10.920;2023-05-07T00:17:20;3.70;;;3.30;;
6739;SDS011;3407;49.882;10.920;2023-05-07T00:22:15;6.97;;;4.30;;
6739;SDS011;3407;49.882;10.920;2023-05-07T00:27:11;4.77;;;4.30;;
6739;SDS011;3407;49.882;10.920;2023-05-07T00:32:07;4.30;;;3.93;;
6739;SDS011;3407;49.882;10.920;2023-05-07T00:37:03;5.60;;;5.03;;
6739;SDS011;3407;49.882;10.920;2023-05-07T00:41:58;5.93;;;5.23;;
6739;SDS011;3407;49.882;10.920;2023-05-07T00:46:55;5.63;;;4.70;;
6739;SDS011;3407;49.882;10.920;2023-05-07T00:51:56;4.67;;;4.17;;
6739;SDS011;3407;49.882;10.920;2023-05-07T00:56:53;4.70;;;4.20;;
6739;SDS011;3407;49.882;10.920;2023-05-07T01:01:49;5.47;;;4.97;;
6739;SDS011;3407;49.882;10.920;2023-05-07T01:06:46;5.13;;;4.67;;
6739;SDS011;3407;49.882;10.920;2023-05-07T01:11:42;4.93;;;4.43;;
6739;SDS011;3407;49.882;10.920;2023-05-07T01:16:39;4.87;;;4.47;;
6739;SDS011;3407;49.882;10.920;2023-05-07T01:21:36;5.60;;;5.10;;
6739;SDS011;3407;49.882;10.920;2023-05-07T01:26:33;5.40;;;4.13;;
6739;SDS011;3407;49.882;10.920;2023-05-07T01:31:29;4.87;;;4.43;;
6739;SDS011;3407;49.882;10.920;2023-05-07T01:36:24;7.80;;;4.50;;
6739;SDS011;3407;49.882;10.920;2023-05-07T01:41:22;6.20;;;4.47;;
6739;SDS011;3407;49.882;10.920;2023-05-07T01:46:17;4.67;;;4.10;;
6739;SDS011;3407;49.882;10.920;2023-05-07T01:51:14;4.10;;;3.80;;
6739;SDS011;3407;49.882;10.920;2023-05-07T01:56:09;4.77;;;4.33;;
6739;SDS011;3407;49.882;10.920;2023-05-07T02:01:05;4.60;;;4.20;;
6739;SDS011;3407;49.882;10.920;2023-05-07T02:06:00;4.57;;;4.17;;
6739;SDS011;3407;49.882;10.920;2023-05-07T02:10:56;5.00;;;4.50;;
6739;SDS011;3407;49.882;10.920;2023-05-07T02:15:51;6.07;;;5.07;;
6739;SDS011;3407;49.882;10.920;2023-05-07T02:20:48;5.13;;;4.67;;
6739;SDS011;3407;49.882;10.920;2023-05-07T02:25:44;5.07;;;4.57;;
6739;SDS011;3407;49.882;10.920;2023-05-07T02:30:40;5.00;;;4.27;;
6739;SDS011;3407;49.882;10.920;2023-05-07T02:35:35;4.97;;;4.47;;
6739;SDS011;3407;49.882;10.920;2023-05-07T02:40:31;4.60;;;4.20;;
6739;SDS011;3407;49.882;10.920;2023-05-07T02:45:28;6.27;;;5.00;;
6739;SDS011;3407;49.882;10.920;2023-05-07T02:50:24;5.87;;;5.30;;
6739;SDS011;3407;49.882;10.920;2023-05-07T02:55:20;5.07;;;4.57;;
6739;SDS011;3407;49.882;10.920;2023-05-07T03:00:18;4.93;;;4.47;;
6739;SDS011;3407;49.882;10.920;2023-05-07T03:05:15;5.63;;;5.10;;
6739;SDS011;3407;49.882;10.920;2023-05-07T03:10:11;6.73;;;5.70;;
6739;SDS011;3407;49.882;10.920;2023-05-07T03:15:07;6.47;;;5.87;;
6739;SDS011;3407;49.882;10.920;2023-05-07T03:20:03;7.53;;;6.10;;
6739;SDS011;3407;49.882;10.920;2023-05-07T03:24:59;8.03;;;7.23;;
6739;SDS011;3407;49.882;10.920;2023-05-07T03:29:54;8.57;;;7.57;;
6739;SDS011;3407;49.882;10.920;2023-05-07T03:34:50;11.23;;;7.10;;
6739;SDS011;3407;49.882;10.920;2023-05-07T03:39:45;8.20;;;7.40;;
6739;SDS011;3407;49.882;10.920;2023-05-07T03:44:41;7.80;;;7.00;;
6739;SDS011;3407;49.882;10.920;2023-05-07T03:49:36;8.00;;;7.27;;
6739;SDS011;3407;49.882;10.920;2023-05-07T03:54:32;7.93;;;7.13;;
6739;SDS011;3407;49.882;10.920;2023-05-07T03:59:28;10.87;;;7.53;;
6739;SDS011;3407;49.882;10.920;2023-05-07T04:04:23;8.20;;;7.40;;
6739;SDS011;3407;49.882;10.920;2023-05-07T04:09:19;10.33;;;8.90;;
6739;SDS011;3407;49.882;10.920;2023-05-07T04:14:14;10.17;;;7.70;;
6739;SDS011;3407;49.882;10.920;2023-05-07T04:19:10;11.53;;;8.67;;
6739;SDS011;3407;49.882;10.920;2023-05-07T04:24:06;7.97;;;7.17;;
6739;SDS011;3407;49.882;10.920;2023-05-07T04:29:01;8.70;;;7.83;;
6739;SDS011;3407;49.882;10.920;2023-05-07T04:33:57;9.03;;;7.97;;
6739;SDS011;3407;49.882;10.920;2023-05-07T04:38:53;8.83;;;7.60;;
6739;SDS011;3407;49.882;10.920;2023-05-07T04:43:48;12.27;;;8.13;;
6739;SDS011;3407;49.882;10.920;2023-05-07T04:48:44;9.33;;;8.30;;
6739;SDS011;3407;49.882;10.920;2023-05-07T04:53:40;11.47;;;8.10;;
6739;SDS011;3407;49.882;10.920;2023-05-07T04:58:35;8.67;;;7.50;;
6739;SDS011;3407;49.882;10.920;2023-05-07T05:03:31;10.33;;;8.10;;
6739;SDS011;3407;49.882;10.920;2023-05-07T05:08:26;8.60;;;7.80;;
6739;SDS011;3407;49.882;10.920;2023-05-07T05:13:22;7.53;;;6.73;;
6739;SDS011;3407;49.882;10.920;2023-05-07T05:18:17;8.00;;;7.13;;
6739;SDS011;3407;49.882;10.920;2023-05-07T05:23:13;8.10;;;7.13;;
6739;SDS011;3407;49.882;10.920;2023-05-07T05:28:08;7.10;;;6.33;;
6739;SDS011;3407;49.882;10.920;2023-05-07T05:33:04;8.30;;;6.33;;
6739;SDS011;3407;49.882;10.920;2023-05-07T05:37:59;9.10;;;7.50;;
6739;SDS011;3407;49.882;10.920;2023-05-07T05:42:55;6.97;;;6.27;;
6739;SDS011;3407;49.882;10.920;2023-05-07T05:47:51;6.77;;;6.07;;
6739;SDS011;3407;49.882;10.920;2023-05-07T05:52:46;5.77;;;5.17;;
6739;SDS011;3407;49.882;10.920;2023-05-07T05:57:42;6.97;;;6.00;;
6739;SDS011;3407;49.882;10.920;2023-05-07T06:02:37;5.90;;;5.30;;
6739;SDS011;3407;49.882;10.920;2023-05-07T06:07:33;5.43;;;4.93;;
6739;SDS011;3407;49.882;10.920;2023-05-07T06:12:29;7.43;;;5.50;;
6739;SDS011;3407;49.882;10.920;2023-05-07T06:17:25;6.07;;;5.40;;
6739;SDS011;3407;49.882;10.920;2023-05-07T06:22:20;4.80;;;4.40;;
6739;SDS011;3407;49.882;10.920;2023-05-07T06:27:16;6.20;;;4.70;;
6739;SDS011;3407;49.882;10.920;2023-05-07T06:32:13;5.37;;;4.87;;
6739;SDS011;3407;49.882;10.920;2023-05-07T06:37:08;4.67;;;4.23;;
6739;SDS011;3407;49.882;10.920;2023-05-07T06:42:04;5.00;;;4.60;;
6739;SDS011;3407;49.882;10.920;2023-05-07T06:46:59;5.13;;;4.63;;
6739;SDS011;3407;49.882;10.920;2023-05-07T06:51:56;4.90;;;4.50;;
6739;SDS011;3407;49.882;10.920;2023-05-07T06:56:51;6.17;;;4.57;;
6739;SDS011;3407;49.882;10.920;2023-05-07T07:01:47;7.10;;;4.50;;
6739;SDS011;3407;49.882;10.920;2023-05-07T07:06:42;5.30;;;4.80;;
6739;SDS011;3407;49.882;10.920;2023-05-07T07:11:38;6.10;;;4.33;;
6739;SDS011;3407;49.882;10.920;2023-05-07T07:16:33;7.80;;;5.33;;
6739;SDS011;3407;49.882;10.920;2023-05-07T07:21:29;5.03;;;4.60;;
6739;SDS011;3407;49.882;10.920;2023-05-07T07:26:25;5.57;;;4.63;;
6739;SDS011;3407;49.882;10.920;2023-05-07T07:31:20;6.27;;;5.27;;
6739;SDS011;3407;49.882;10.920;2023-05-07T07:36:16;5.00;;;4.50;;
6739;SDS011;3407;49.882;10.920;2023-05-07T07:41:11;4.77;;;4.33;;
6739;SDS011;3407;49.882;10.920;2023-05-07T07:46:07;4.77;;;4.37;;
6739;SDS011;3407;49.882;10.920;2023-05-07T07:51:03;4.60;;;4.20;;
6739;SDS011;3407;49.882;10.920;2023-05-07T07:55:58;6.20;;;4.63;;
6739;SDS011;3407;49.882;10.920;2023-05-07T08:00:54;5.23;;;4.30;;
6739;SDS011;3407;49.882;10.920;2023-05-07T08:05:50;4.40;;;4.00;;
6739;SDS011;3407;49.882;10.920;2023-05-07T08:10:46;4.17;;;3.77;;
6739;SDS011;3407;49.882;10.920;2023-05-07T08:15:44;4.70;;;4.30;;
6739;SDS011;3407;49.882;10.920;2023-05-07T08:20:40;4.57;;;4.07;;
6739;SDS011;3407;49.882;10.920;2023-05-07T08:25:36;5.27;;;4.77;;
6739;SDS011;3407;49.882;10.920;2023-05-07T08:30:32;4.07;;;3.77;;
6739;SDS011;3407;49.882;10.920;2023-05-07T08:35:27;6.43;;;4.40;;
6739;SDS011;3407;49.882;10.920;2023-05-07T08:40:24;4.23;;;3.83;;
6739;SDS011;3407;49.882;10.920;2023-05-07T08:45:21;4.67;;;3.70;;
6739;SDS011;3407;49.882;10.920;2023-05-07T08:50:17;4.30;;;3.50;;
6739;SDS011;3407;49.882;10.920;2023-05-07T08:55:13;3.90;;;3.60;;
6739;SDS011;3407;49.882;10.920;2023-05-07T09:00:10;4.37;;;3.97;;
6739;SDS011;3407;49.882;10.920;2023-05-07T09:05:06;3.67;;;3.30;;
6739;SDS011;3407;49.882;10.920;2023-05-07T09:10:03;5.83;;;4.10;;
6739;SDS011;3407;49.882;10.920;2023-05-07T09:14:59;4.93;;;3.80;;
6739;SDS011;3407;49.882;10.920;2023-05-07T09:19:54;4.50;;;4.00;;
6739;SDS011;3407;49.882;10.920;2023-05-07T09:24:50;3.90;;;3.50;;
6739;SDS011;3407;49.882;10.920;2023-05-07T09:29:46;4.20;;;3.80;;
6739;SDS011;3407;49.882;10.920;2023-05-07T09:34:41;4.03;;;3.60;;
6739;SDS011;3407;49.882;10.920;2023-05-07T09:39:44;4.10;;;3.37;;
6739;SDS011;3407;49.882;10.920;2023-05-07T09:44:41;3.83;;;3.33;;
6739;SDS011;3407;49.882;10.920;2023-05-07T09:49:39;3.57;;;3.27;;
6739;SDS011;3407;49.882;10.920;2023-05-07T09:54:37;3.67;;;3.33;;
6739;SDS011;3407;49.882;10.920;2023-05-07T09:59:33;3.35;;;3.05;;
6739;SDS011;3407;49.882;10.920;2023-05-07T10:04:31;3.42;;;2.83;;
6739;SDS011;3407;49.882;10.920;2023-05-07T10:09:27;3.20;;;2.90;;
6739;SDS011;3407;49.882;10.920;2023-05-07T10:14:24;3.00;;;2.70;;
6739;SDS011;3407;49.882;10.920;2023-05-07T10:19:20;3.93;;;3.60;;
6739;SDS011;3407;49.882;10.920;2023-05-07T10:24:19;4.00;;;3.27;;
6739;SDS011;3407;49.882;10.920;2023-05-07T10:34:23;4.43;;;4.03;;
6739;SDS011;3407;49.882;10.920;2023-05-07T10:39:21;3.47;;;3.17;;
6739;SDS011;3407;49.882;10.920;2023-05-07T10:44:27;4.20;;;3.20;;
6739;SDS011;3407;49.882;10.920;2023-05-07T10:49:24;4.30;;;3.47;;
6739;SDS011;3407;49.882;10.920;2023-05-07T10:54:20;2.73;;;2.50;;
6739;SDS011;3407;49.882;10.920;2023-05-07T11:04:18;3.30;;;3.00;;
6739;SDS011;3407;49.882;10.920;2023-05-07T11:09:21;3.40;;;3.10;;
6739;SDS011;3407;49.882;10.920;2023-05-07T11:19:47;2.97;;;2.67;;
6739;SDS011;3407;49.882;10.920;2023-05-07T11:24:45;2.97;;;2.77;;
6739;SDS011;3407;49.882;10.920;2023-05-07T11:29:41;3.50;;;3.17;;
6739;SDS011;3407;49.882;10.920;2023-05-07T11:34:42;3.93;;;2.70;;
6739;SDS011;3407;49.882;10.920;2023-05-07T11:39:39;2.50;;;2.30;;
6739;SDS011;3407;49.882;10.920;2023-05-07T11:44:44;3.50;;;3.20;;
6739;SDS011;3407;49.882;10.920;2023-05-07T11:49:40;2.20;;;2.00;;
6739;SDS011;3407;49.882;10.920;2023-05-07T11:54:36;2.70;;;2.50;;
6739;SDS011;3407;49.882;10.920;2023-05-07T11:59:41;1.87;;;1.77;;
6739;SDS011;3407;49.882;10.920;2023-05-07T12:04:39;3.30;;;2.40;;
6739;SDS011;3407;49.882;10.920;2023-05-07T12:09:34;2.80;;;2.60;;
6739;SDS011;3407;49.882;10.920;2023-05-07T12:14:30;3.93;;;3.10;;
6739;SDS011;3407;49.882;10.920;2023-05-07T12:19:26;4.27;;;3.30;;
6739;SDS011;3407;49.882;10.920;2023-05-07T12:24:22;3.40;;;3.10;;
6739;SDS011;3407;49.882;10.920;2023-05-07T12:29:21;4.87;;;3.03;;
6739;SDS011;3407;49.882;10.920;2023-05-07T12:34:17;3.30;;;3.00;;
6739;SDS011;3407;49.882;10.920;2023-05-07T12:39:13;3.83;;;3.30;;
6739;SDS011;3407;49.882;10.920;2023-05-07T12:44:08;3.47;;;3.17;;
6739;SDS011;3407;49.882;10.920;2023-05-07T12:49:04;3.57;;;3.23;;
6739;SDS011;3407;49.882;10.920;2023-05-07T12:53:59;3.43;;;3.13;;
6739;SDS011;3407;49.882;10.920;2023-05-07T12:58:57;4.30;;;3.33;;
6739;SDS011;3407;49.882;10.920;2023-05-07T13:03:53;3.03;;;2.83;;
6739;SDS011;3407;49.882;10.920;2023-05-07T13:08:48;3.37;;;3.07;;
6739;SDS011;3407;49.882;10.920;2023-05-07T13:13:44;3.47;;;3.17;;
6739;SDS011;3407;49.882;10.920;2023-05-07T13:18:40;4.63;;;3.50;;
6739;SDS011;3407;49.882;10.920;2023-05-07T13:23:35;2.97;;;2.70;;
6739;SDS011;3407;49.882;10.920;2023-05-07T13:28:33;2.90;;;2.70;;
6739;SDS011;3407;49.882;10.920;2023-05-07T13:33:28;2.33;;;2.13;;
6739;SDS011;3407;49.882;10.920;2023-05-07T13:38:24;2.75;;;2.40;;
6739;SDS011;3407;49.882;10.920;2023-05-07T13:43:19;2.42;;;2.22;;
6739;SDS011;3407;49.882;10.920;2023-05-07T13:48:15;2.58;;;2.30;;
6739;SDS011;3407;49.882;10.920;2023-05-07T13:53:10;2.65;;;2.45;;
6739;SDS011;3407;49.882;10.920;2023-05-07T13:58:06;2.58;;;2.38;;
6739;SDS011;3407;49.882;10.920;2023-05-07T14:03:01;6.82;;;6.22;;
6739;SDS011;3407;49.882;10.920;2023-05-07T14:07:59;3.13;;;2.83;;
6739;SDS011;3407;49.882;10.920;2023-05-07T14:12:55;2.63;;;2.43;;
6739;SDS011;3407;49.882;10.920;2023-05-07T14:17:50;2.87;;;2.67;;
6739;SDS011;3407;49.882;10.920;2023-05-07T14:22:46;2.47;;;2.33;;
6739;SDS011;3407;49.882;10.920;2023-05-07T14:27:41;4.07;;;2.80;;
6739;SDS011;3407;49.882;10.920;2023-05-07T14:32:37;3.83;;;2.67;;
6739;SDS011;3407;49.882;10.920;2023-05-07T14:37:33;3.20;;;2.90;;
6739;SDS011;3407;49.882;10.920;2023-05-07T14:42:28;2.50;;;2.30;;
6739;SDS011;3407;49.882;10.920;2023-05-07T14:47:24;2.83;;;2.63;;
6739;SDS011;3407;49.882;10.920;2023-05-07T14:52:19;3.20;;;2.90;;
6739;SDS011;3407;49.882;10.920;2023-05-07T14:57:15;3.00;;;2.70;;
6739;SDS011;3407;49.882;10.920;2023-05-07T15:02:11;2.40;;;2.20;;
6739;SDS011;3407;49.882;10.920;2023-05-07T15:07:07;2.30;;;2.20;;
6739;SDS011;3407;49.882;10.920;2023-05-07T15:12:03;3.97;;;2.53;;
6739;SDS011;3407;49.882;10.920;2023-05-07T15:16:58;2.93;;;2.67;;
6739;SDS011;3407;49.882;10.920;2023-05-07T15:21:57;2.67;;;2.47;;
6739;SDS011;3407;49.882;10.920;2023-05-07T15:26:54;2.83;;;2.63;;
6739;SDS011;3407;49.882;10.920;2023-05-07T15:31:50;2.80;;;2.50;;
6739;SDS011;3407;49.882;10.920;2023-05-07T15:36:46;4.00;;;2.13;;
6739;SDS011;3407;49.882;10.920;2023-05-07T15:41:42;4.10;;;2.43;;
6739;SDS011;3407;49.882;10.920;2023-05-07T15:46:38;2.07;;;1.80;;
6739;SDS011;3407;49.882;10.920;2023-05-07T15:51:34;4.07;;;2.30;;
6739;SDS011;3407;49.882;10.920;2023-05-07T15:56:30;2.97;;;1.80;;
6739;SDS011;3407;49.882;10.920;2023-05-07T16:01:29;2.40;;;2.20;;
6739;SDS011;3407;49.882;10.920;2023-05-07T16:06:24;2.50;;;2.30;;
6739;SDS011;3407;49.882;10.920;2023-05-07T16:11:21;3.53;;;2.70;;
6739;SDS011;3407;49.882;10.920;2023-05-07T16:16:17;2.63;;;2.43;;
6739;SDS011;3407;49.882;10.920;2023-05-07T16:21:13;3.60;;;2.93;;
6739;SDS011;3407;49.882;10.920;2023-05-07T16:26:08;4.27;;;3.17;;
6739;SDS011;3407;49.882;10.920;2023-05-07T16:31:06;3.30;;;2.63;;
6739;SDS011;3407;49.882;10.920;2023-05-07T16:36:02;3.43;;;2.97;;
6739;SDS011;3407;49.882;10.920;2023-05-07T16:40:58;3.37;;;3.03;;
6739;SDS011;3407;49.882;10.920;2023-05-07T16:45:54;4.33;;;3.67;;
6739;SDS011;3407;49.882;10.920;2023-05-07T16:50:50;4.30;;;3.30;;
6739;SDS011;3407;49.882;10.920;2023-05-07T16:55:45;4.03;;;3.63;;
6739;SDS011;3407;49.882;10.920;2023-05-07T17:00:41;4.00;;;3.60;;
6739;SDS011;3407;49.882;10.920;2023-05-07T17:05:36;5.60;;;3.67;;
6739;SDS011;3407;49.882;10.920;2023-05-07T17:10:32;4.07;;;3.67;;
6739;SDS011;3407;49.882;10.920;2023-05-07T17:15:28;6.20;;;4.27;;
6739;SDS011;3407;49.882;10.920;2023-05-07T17:20:23;4.90;;;4.00;;
6739;SDS011;3407;49.882;10.920;2023-05-07T17:25:19;5.23;;;3.87;;
6739;SDS011;3407;49.882;10.920;2023-05-07T17:30:17;5.63;;;4.77;;
6739;SDS011;3407;49.882;10.920;2023-05-07T17:35:12;4.27;;;3.87;;
6739;SDS011;3407;49.882;10.920;2023-05-07T17:40:08;4.70;;;4.00;;
6739;SDS011;3407;49.882;10.920;2023-05-07T17:45:04;4.30;;;3.40;;
6739;SDS011;3407;49.882;10.920;2023-05-07T17:50:00;4.60;;;3.57;;
6739;SDS011;3407;49.882;10.920;2023-05-07T17:54:56;4.10;;;3.80;;
6739;SDS011;3407;49.882;10.920;2023-05-07T17:59:52;9.27;;;4.17;;
6739;SDS011;3407;49.882;10.920;2023-05-07T18:04:48;5.93;;;3.77;;
6739;SDS011;3407;49.882;10.920;2023-05-07T18:09:43;4.70;;;3.80;;
6739;SDS011;3407;49.882;10.920;2023-05-07T18:14:39;4.73;;;3.40;;
6739;SDS011;3407;49.882;10.920;2023-05-07T18:19:34;6.33;;;3.80;;
6739;SDS011;3407;49.882;10.920;2023-05-07T18:24:30;5.23;;;3.60;;
6739;SDS011;3407;49.882;10.920;2023-05-07T18:29:25;4.90;;;3.80;;
6739;SDS011;3407;49.882;10.920;2023-05-07T18:34:21;4.27;;;3.60;;
6739;SDS011;3407;49.882;10.920;2023-05-07T18:39:17;3.63;;;3.30;;
6739;SDS011;3407;49.882;10.920;2023-05-07T18:44:12;4.40;;;3.63;;
6739;SDS011;3407;49.882;10.920;2023-05-07T18:49:08;4.27;;;3.30;;
6739;SDS011;3407;49.882;10.920;2023-05-07T18:54:04;4.87;;;3.73;;
6739;SDS011;3407;49.882;10.920;2023-05-07T18:58:59;4.47;;;4.07;;
6739;SDS011;3407;49.882;10.920;2023-05-07T19:03:55;4.23;;;3.83;;
6739;SDS011;3407;49.882;10.920;2023-05-07T19:08:50;3.93;;;3.63;;
6739;SDS011;3407;49.882;10.920;2023-05-07T19:13:46;6.13;;;4.07;;
6739;SDS011;3407;49.882;10.920;2023-05-07T19:18:42;4.50;;;3.80;;
6739;SDS011;3407;49.882;10.920;2023-05-07T19:23:37;5.37;;;4.57;;
6739;SDS011;3407;49.882;10.920;2023-05-07T19:28:38;4.90;;;4.40;;
6739;SDS011;3407;49.882;10.920;2023-05-07T19:33:34;5.43;;;4.43;;
6739;SDS011;3407;49.882;10.920;2023-05-07T19:38:30;4.33;;;3.93;;
6739;SDS011;3407;49.882;10.920;2023-05-07T19:43:25;5.00;;;4.50;;
6739;SDS011;3407;49.882;10.920;2023-05-07T19:48:21;4.30;;;3.90;;
6739;SDS011;3407;49.882;10.920;2023-05-07T19:53:16;5.00;;;4.40;;
6739;SDS011;3407;49.882;10.920;2023-05-07T19:58:12;6.23;;;4.20;;
6739;SDS011;3407;49.882;10.920;2023-05-07T20:03:10;5.13;;;4.30;;
6739;SDS011;3407;49.882;10.920;2023-05-07T20:08:12;4.13;;;3.63;;
6739;SDS011;3407;49.882;10.920;2023-05-07T20:13:07;6.10;;;4.50;;
6739;SDS011;3407;49.882;10.920;2023-05-07T20:18:03;5.50;;;4.10;;
6739;SDS011;3407;49.882;10.920;2023-05-07T20:22:59;4.60;;;4.13;;
6739;SDS011;3407;49.882;10.920;2023-05-07T20:27:55;4.60;;;4.20;;
6739;SDS011;3407;49.882;10.920;2023-05-07T20:32:50;4.63;;;4.23;;
6739;SDS011;3407;49.882;10.920;2023-05-07T20:37:46;4.50;;;4.10;;
6739;SDS011;3407;49.882;10.920;2023-05-07T20:42:41;3.83;;;3.53;;
6739;SDS011;3407;49.882;10.920;2023-05-07T20:47:37;4.13;;;3.50;;
6739;SDS011;3407;49.882;10.920;2023-05-07T20:52:33;3.50;;;3.20;;
6739;SDS011;3407;49.882;10.920;2023-05-07T20:57:29;3.77;;;3.47;;
6739;SDS011;3407;49.882;10.920;2023-05-07T21:02:25;4.20;;;3.43;;
6739;SDS011;3407;49.882;10.920;2023-05-07T21:07:20;4.20;;;3.80;;
6739;SDS011;3407;49.882;10.920;2023-05-07T21:12:16;4.90;;;3.60;;
6739;SDS011;3407;49.882;10.920;2023-05-07T21:17:11;3.70;;;3.40;;
6739;SDS011;3407;49.882;10.920;2023-05-07T21:22:07;6.87;;;4.53;;
6739;SDS011;3407;49.882;10.920;2023-05-07T21:27:02;4.00;;;3.70;;
6739;SDS011;3407;49.882;10.920;2023-05-07T21:31:58;4.43;;;4.00;;
6739;SDS011;3407;49.882;10.920;2023-05-07T21:36:54;4.50;;;4.10;;
6739;SDS011;3407;49.882;10.920;2023-05-07T21:41:49;4.50;;;4.10;;
6739;SDS011;3407;49.882;10.920;2023-05-07T21:46:45;6.13;;;4.20;;
6739;SDS011;3407;49.882;10.920;2023-05-07T21:51:40;6.17;;;4.20;;
6739;SDS011;3407;49.882;10.920;2023-05-07T21:56:36;4.73;;;4.33;;
6739;SDS011;3407;49.882;10.920;2023-05-07T22:01:32;4.97;;;4.13;;
6739;SDS011;3407;49.882;10.920;2023-05-07T22:06:27;4.43;;;4.03;;
6739;SDS011;3407;49.882;10.920;2023-05-07T22:11:23;4.87;;;4.37;;
6739;SDS011;3407;49.882;10.920;2023-05-07T22:16:18;4.90;;;4.40;;
6739;SDS011;3407;49.882;10.920;2023-05-07T22:21:14;4.87;;;4.40;;
6739;SDS011;3407;49.882;10.920;2023-05-07T22:26:12;5.10;;;4.60;;
6739;SDS011;3407;49.882;10.920;2023-05-07T22:31:08;5.30;;;4.80;;
6739;SDS011;3407;49.882;10.920;2023-05-07T22:36:05;5.30;;;4.80;;
6739;SDS011;3407;49.882;10.920;2023-05-07T22:41:02;5.20;;;4.77;;
6739;SDS011;3407;49.882;10.920;2023-05-07T22:45:57;6.23;;;4.53;;
6739;SDS011;3407;49.882;10.920;2023-05-07T22:50:54;4.70;;;4.30;;
6739;SDS011;3407;49.882;10.920;2023-05-07T22:55:50;5.63;;;5.03;;
6739;SDS011;3407;49.882;10.920;2023-05-07T23:00:46;4.60;;;4.20;;
6739;SDS011;3407;49.882;10.920;2023-05-07T23:05:41;5.70;;;4.50;;
6739;SDS011;3407;49.882;10.920;2023-05-07T23:10:37;5.00;;;4.50;;
6739;SDS011;3407;49.882;10.920;2023-05-07T23:15:32;4.63;;;4.03;;
6739;SDS011;3407;49.882;10.920;2023-05-07T23:20:28;4.83;;;4.33;;
6739;SDS011;3407;49.882;10.920;2023-05-07T23:25:23;5.90;;;4.50;;
6739;SDS011;3407;49.882;10.920;2023-05-07T23:30:19;6.23;;;5.63;;
6739;SDS011;3407;49.882;10.920;2023-05-07T23:35:14;4.70;;;4.30;;
6739;SDS011;3407;49.882;10.920;2023-05-07T23:40:10;4.90;;;4.40;;
6739;SDS011;3407;49.882;10.920;2023-05-07T23:45:06;5.07;;;4.30;;
6739;SDS011;3407;49.882;10.920;2023-05-07T23:50:02;5.50;;;5.00;;
6739;SDS011;3407;49.882;10.920;2023-05-07T23:54:58;4.93;;;4.50;;
6739;SDS011;3407;49.882;10.920;2023-05-07T23:59:53;6.10;;;4.53;;
